sensor_id;sensor_type;location;lat;lon;timestamp;P1;durP1;ratioP1;P2;durP2;ratioP2
35330;SDS011;21441;52.190;20.910;2023-05-10T00:01:49;6.30;;;4.30;;
35330;SDS011;21441;52.190;20.910;2023-05-10T00:04:16;6.43;;;4.60;;
35330;SDS011;21441;52.190;20.910;2023-05-10T00:06:45;8.70;;;5.78;;
35330;SDS011;21441;52.190;20.910;2023-05-10T00:09:12;9.68;;;4.47;;
35330;SDS011;21441;52.190;20.910;2023-05-10T00:11:39;11.00;;;4.63;;
35330;SDS011;21441;52.190;20.910;2023-05-10T00:14:06;10.40;;;4.45;;
35330;SDS011;21441;52.190;20.910;2023-05-10T00:16:33;8.98;;;5.03;;
35330;SDS011;21441;52.190;20.910;2023-05-10T00:19:00;6.38;;;4.38;;
35330;SDS011;21441;52.190;20.910;2023-05-10T00:21:27;8.65;;;5.60;;
35330;SDS011;21441;52.190;20.910;2023-05-10T00:23:56;7.03;;;4.97;;
35330;SDS011;21441;52.190;20.910;2023-05-10T00:26:23;9.43;;;4.55;;
35330;SDS011;21441;52.190;20.910;2023-05-10T00:28:50;7.45;;;4.95;;
35330;SDS011;21441;52.190;20.910;2023-05-10T00:31:18;7.93;;;4.50;;
35330;SDS011;21441;52.190;20.910;2023-05-10T00:33:45;8.50;;;4.40;;
35330;SDS011;21441;52.190;20.910;2023-05-10T00:36:12;9.13;;;4.90;;
35330;SDS011;21441;52.190;20.910;2023-05-10T00:38:39;10.90;;;5.30;;
35330;SDS011;21441;52.190;20.910;2023-05-10T00:41:08;6.97;;;4.45;;
35330;SDS011;21441;52.190;20.910;2023-05-10T00:43:35;6.47;;;4.53;;
35330;SDS011;21441;52.190;20.910;2023-05-10T00:46:02;5.93;;;4.63;;
35330;SDS011;21441;52.190;20.910;2023-05-10T00:48:30;5.30;;;4.00;;
35330;SDS011;21441;52.190;20.910;2023-05-10T00:50:57;7.22;;;4.18;;
35330;SDS011;21441;52.190;20.910;2023-05-10T00:53:24;6.05;;;4.28;;
35330;SDS011;21441;52.190;20.910;2023-05-10T00:55:52;5.65;;;4.22;;
35330;SDS011;21441;52.190;20.910;2023-05-10T00:58:20;7.75;;;4.75;;
35330;SDS011;21441;52.190;20.910;2023-05-10T01:00:49;8.45;;;4.85;;
35330;SDS011;21441;52.190;20.910;2023-05-10T01:03:18;4.75;;;3.92;;
35330;SDS011;21441;52.190;20.910;2023-05-10T01:05:45;6.65;;;4.53;;
35330;SDS011;21441;52.190;20.910;2023-05-10T01:08:12;6.68;;;4.55;;
35330;SDS011;21441;52.190;20.910;2023-05-10T01:10:40;8.48;;;4.38;;
35330;SDS011;21441;52.190;20.910;2023-05-10T01:13:07;6.43;;;4.70;;
35330;SDS011;21441;52.190;20.910;2023-05-10T01:15:36;7.40;;;4.45;;
35330;SDS011;21441;52.190;20.910;2023-05-10T01:18:04;6.30;;;4.28;;
35330;SDS011;21441;52.190;20.910;2023-05-10T01:20:32;7.38;;;4.35;;
35330;SDS011;21441;52.190;20.910;2023-05-10T01:23:24;10.82;;;4.93;;
35330;SDS011;21441;52.190;20.910;2023-05-10T01:29:11;6.65;;;3.92;;
35330;SDS011;21441;52.190;20.910;2023-05-10T01:31:56;7.07;;;3.90;;
35330;SDS011;21441;52.190;20.910;2023-05-10T01:34:42;9.90;;;5.00;;
35330;SDS011;21441;52.190;20.910;2023-05-10T01:37:20;6.80;;;4.30;;
35330;SDS011;21441;52.190;20.910;2023-05-10T01:39:53;8.02;;;4.53;;
35330;SDS011;21441;52.190;20.910;2023-05-10T01:42:32;6.53;;;4.22;;
35330;SDS011;21441;52.190;20.910;2023-05-10T01:45:07;7.03;;;4.57;;
35330;SDS011;21441;52.190;20.910;2023-05-10T01:47:43;10.57;;;5.15;;
35330;SDS011;21441;52.190;20.910;2023-05-10T01:50:15;9.98;;;4.05;;
35330;SDS011;21441;52.190;20.910;2023-05-10T01:52:47;5.63;;;4.30;;
35330;SDS011;21441;52.190;20.910;2023-05-10T01:55:20;7.40;;;5.18;;
35330;SDS011;21441;52.190;20.910;2023-05-10T01:57:53;7.07;;;5.30;;
35330;SDS011;21441;52.190;20.910;2023-05-10T02:00:27;6.57;;;4.82;;
35330;SDS011;21441;52.190;20.910;2023-05-10T02:02:58;8.45;;;5.32;;
35330;SDS011;21441;52.190;20.910;2023-05-10T02:05:28;9.10;;;4.72;;
35330;SDS011;21441;52.190;20.910;2023-05-10T02:07:59;7.25;;;4.55;;
35330;SDS011;21441;52.190;20.910;2023-05-10T02:10:27;7.22;;;4.80;;
35330;SDS011;21441;52.190;20.910;2023-05-10T02:12:55;7.90;;;4.43;;
35330;SDS011;21441;52.190;20.910;2023-05-10T02:17:54;9.05;;;4.55;;
35330;SDS011;21441;52.190;20.910;2023-05-10T02:20:25;7.50;;;4.45;;
35330;SDS011;21441;52.190;20.910;2023-05-10T02:22:54;8.55;;;4.40;;
35330;SDS011;21441;52.190;20.910;2023-05-10T02:25:23;6.57;;;4.82;;
35330;SDS011;21441;52.190;20.910;2023-05-10T02:27:53;10.07;;;4.97;;
35330;SDS011;21441;52.190;20.910;2023-05-10T02:30:22;8.63;;;4.50;;
35330;SDS011;21441;52.190;20.910;2023-05-10T02:32:50;8.63;;;4.80;;
35330;SDS011;21441;52.190;20.910;2023-05-10T02:35:18;6.00;;;4.43;;
35330;SDS011;21441;52.190;20.910;2023-05-10T02:37:50;7.38;;;4.70;;
35330;SDS011;21441;52.190;20.910;2023-05-10T02:40:19;6.87;;;4.67;;
35330;SDS011;21441;52.190;20.910;2023-05-10T02:42:48;10.25;;;4.30;;
35330;SDS011;21441;52.190;20.910;2023-05-10T02:45:19;7.57;;;4.30;;
35330;SDS011;21441;52.190;20.910;2023-05-10T02:47:50;7.65;;;4.40;;
35330;SDS011;21441;52.190;20.910;2023-05-10T02:50:17;7.28;;;4.90;;
35330;SDS011;21441;52.190;20.910;2023-05-10T02:52:46;8.07;;;5.15;;
35330;SDS011;21441;52.190;20.910;2023-05-10T02:55:19;10.40;;;4.93;;
35330;SDS011;21441;52.190;20.910;2023-05-10T02:57:51;11.40;;;5.47;;
35330;SDS011;21441;52.190;20.910;2023-05-10T03:00:22;7.50;;;4.43;;
35330;SDS011;21441;52.190;20.910;2023-05-10T03:02:50;6.63;;;4.57;;
35330;SDS011;21441;52.190;20.910;2023-05-10T03:05:18;7.88;;;4.65;;
35330;SDS011;21441;52.190;20.910;2023-05-10T03:07:45;9.27;;;4.68;;
35330;SDS011;21441;52.190;20.910;2023-05-10T03:10:13;8.15;;;5.32;;
35330;SDS011;21441;52.190;20.910;2023-05-10T03:12:53;8.50;;;5.63;;
35330;SDS011;21441;52.190;20.910;2023-05-10T03:15:31;8.55;;;4.40;;
35330;SDS011;21441;52.190;20.910;2023-05-10T03:18:05;7.60;;;4.90;;
35330;SDS011;21441;52.190;20.910;2023-05-10T03:20:41;5.72;;;4.53;;
35330;SDS011;21441;52.190;20.910;2023-05-10T03:23:11;7.78;;;4.20;;
35330;SDS011;21441;52.190;20.910;2023-05-10T03:25:40;9.30;;;5.50;;
35330;SDS011;21441;52.190;20.910;2023-05-10T03:28:10;7.95;;;4.60;;
35330;SDS011;21441;52.190;20.910;2023-05-10T03:30:38;6.25;;;5.05;;
35330;SDS011;21441;52.190;20.910;2023-05-10T03:33:06;7.80;;;4.85;;
35330;SDS011;21441;52.190;20.910;2023-05-10T03:35:33;14.00;;;6.78;;
35330;SDS011;21441;52.190;20.910;2023-05-10T03:38:00;7.82;;;4.50;;
35330;SDS011;21441;52.190;20.910;2023-05-10T03:40:27;9.35;;;4.90;;
35330;SDS011;21441;52.190;20.910;2023-05-10T03:42:57;7.32;;;4.85;;
35330;SDS011;21441;52.190;20.910;2023-05-10T03:45:26;9.68;;;5.45;;
35330;SDS011;21441;52.190;20.910;2023-05-10T03:47:53;8.68;;;4.93;;
35330;SDS011;21441;52.190;20.910;2023-05-10T03:50:21;8.13;;;4.65;;
35330;SDS011;21441;52.190;20.910;2023-05-10T03:52:48;7.20;;;4.47;;
35330;SDS011;21441;52.190;20.910;2023-05-10T03:55:15;8.45;;;4.20;;
35330;SDS011;21441;52.190;20.910;2023-05-10T03:57:43;9.55;;;4.68;;
35330;SDS011;21441;52.190;20.910;2023-05-10T04:00:10;6.95;;;4.30;;
35330;SDS011;21441;52.190;20.910;2023-05-10T04:02:39;9.30;;;4.93;;
35330;SDS011;21441;52.190;20.910;2023-05-10T04:05:07;9.88;;;4.93;;
35330;SDS011;21441;52.190;20.910;2023-05-10T04:07:35;11.10;;;4.68;;
35330;SDS011;21441;52.190;20.910;2023-05-10T04:10:02;5.63;;;4.38;;
35330;SDS011;21441;52.190;20.910;2023-05-10T04:12:30;7.38;;;4.78;;
35330;SDS011;21441;52.190;20.910;2023-05-10T04:14:57;6.28;;;4.13;;
35330;SDS011;21441;52.190;20.910;2023-05-10T04:17:24;6.63;;;4.10;;
35330;SDS011;21441;52.190;20.910;2023-05-10T04:19:53;6.90;;;4.53;;
35330;SDS011;21441;52.190;20.910;2023-05-10T04:22:21;8.55;;;3.95;;
35330;SDS011;21441;52.190;20.910;2023-05-10T04:24:47;5.63;;;3.72;;
35330;SDS011;21441;52.190;20.910;2023-05-10T04:27:15;10.45;;;5.18;;
35330;SDS011;21441;52.190;20.910;2023-05-10T04:29:42;6.82;;;4.57;;
35330;SDS011;21441;52.190;20.910;2023-05-10T04:32:09;7.13;;;4.65;;
35330;SDS011;21441;52.190;20.910;2023-05-10T04:34:36;8.15;;;3.92;;
35330;SDS011;21441;52.190;20.910;2023-05-10T04:37:05;6.82;;;4.95;;
35330;SDS011;21441;52.190;20.910;2023-05-10T04:39:32;10.38;;;5.10;;
35330;SDS011;21441;52.190;20.910;2023-05-10T04:42:00;7.40;;;4.30;;
35330;SDS011;21441;52.190;20.910;2023-05-10T04:44:28;7.38;;;4.72;;
35330;SDS011;21441;52.190;20.910;2023-05-10T04:46:56;7.88;;;4.50;;
35330;SDS011;21441;52.190;20.910;2023-05-10T04:49:23;8.10;;;4.15;;
35330;SDS011;21441;52.190;20.910;2023-05-10T04:51:51;7.50;;;4.07;;
35330;SDS011;21441;52.190;20.910;2023-05-10T04:54:19;10.05;;;4.18;;
35330;SDS011;21441;52.190;20.910;2023-05-10T04:56:46;5.63;;;4.13;;
35330;SDS011;21441;52.190;20.910;2023-05-10T04:59:13;6.00;;;4.35;;
35330;SDS011;21441;52.190;20.910;2023-05-10T05:01:41;6.88;;;4.57;;
35330;SDS011;21441;52.190;20.910;2023-05-10T05:04:08;7.65;;;4.72;;
35330;SDS011;21441;52.190;20.910;2023-05-10T05:06:35;7.00;;;4.18;;
35330;SDS011;21441;52.190;20.910;2023-05-10T05:09:02;8.90;;;3.92;;
35330;SDS011;21441;52.190;20.910;2023-05-10T05:11:31;7.60;;;4.00;;
35330;SDS011;21441;52.190;20.910;2023-05-10T05:13:57;10.02;;;5.40;;
35330;SDS011;21441;52.190;20.910;2023-05-10T05:16:25;6.80;;;4.25;;
35330;SDS011;21441;52.190;20.910;2023-05-10T05:18:52;6.95;;;4.63;;
35330;SDS011;21441;52.190;20.910;2023-05-10T05:21:20;6.63;;;4.18;;
35330;SDS011;21441;52.190;20.910;2023-05-10T05:23:47;10.18;;;4.57;;
35330;SDS011;21441;52.190;20.910;2023-05-10T05:26:14;6.75;;;3.83;;
35330;SDS011;21441;52.190;20.910;2023-05-10T05:28:43;7.20;;;3.67;;
35330;SDS011;21441;52.190;20.910;2023-05-10T05:31:10;4.78;;;3.42;;
35330;SDS011;21441;52.190;20.910;2023-05-10T05:33:37;8.18;;;4.05;;
35330;SDS011;21441;52.190;20.910;2023-05-10T05:36:05;6.97;;;4.10;;
35330;SDS011;21441;52.190;20.910;2023-05-10T05:38:32;7.80;;;3.85;;
35330;SDS011;21441;52.190;20.910;2023-05-10T05:40:59;9.63;;;4.28;;
35330;SDS011;21441;52.190;20.910;2023-05-10T05:43:26;5.13;;;3.83;;
35330;SDS011;21441;52.190;20.910;2023-05-10T05:45:55;5.25;;;3.90;;
35330;SDS011;21441;52.190;20.910;2023-05-10T05:48:23;6.85;;;4.35;;
35330;SDS011;21441;52.190;20.910;2023-05-10T05:50:53;7.22;;;3.55;;
35330;SDS011;21441;52.190;20.910;2023-05-10T05:53:21;6.18;;;3.75;;
35330;SDS011;21441;52.190;20.910;2023-05-10T05:55:52;9.68;;;4.10;;
35330;SDS011;21441;52.190;20.910;2023-05-10T05:58:20;7.75;;;4.15;;
35330;SDS011;21441;52.190;20.910;2023-05-10T06:00:48;9.63;;;3.97;;
35330;SDS011;21441;52.190;20.910;2023-05-10T06:03:16;8.05;;;3.60;;
35330;SDS011;21441;52.190;20.910;2023-05-10T06:05:44;6.38;;;3.63;;
35330;SDS011;21441;52.190;20.910;2023-05-10T06:08:11;7.30;;;3.63;;
35330;SDS011;21441;52.190;20.910;2023-05-10T06:10:38;5.47;;;2.85;;
35330;SDS011;21441;52.190;20.910;2023-05-10T06:13:05;5.57;;;3.60;;
35330;SDS011;21441;52.190;20.910;2023-05-10T06:15:32;5.35;;;3.60;;
35330;SDS011;21441;52.190;20.910;2023-05-10T06:17:59;6.47;;;3.30;;
35330;SDS011;21441;52.190;20.910;2023-05-10T06:20:28;5.63;;;3.15;;
35330;SDS011;21441;52.190;20.910;2023-05-10T06:22:56;6.25;;;3.47;;
35330;SDS011;21441;52.190;20.910;2023-05-10T06:25:24;6.93;;;3.70;;
35330;SDS011;21441;52.190;20.910;2023-05-10T06:27:51;5.22;;;2.55;;
35330;SDS011;21441;52.190;20.910;2023-05-10T06:30:23;5.78;;;3.58;;
35330;SDS011;21441;52.190;20.910;2023-05-10T06:32:53;7.65;;;3.03;;
35330;SDS011;21441;52.190;20.910;2023-05-10T06:35:21;7.05;;;3.28;;
35330;SDS011;21441;52.190;20.910;2023-05-10T06:37:50;5.13;;;3.17;;
35330;SDS011;21441;52.190;20.910;2023-05-10T06:40:17;4.65;;;2.58;;
35330;SDS011;21441;52.190;20.910;2023-05-10T06:42:45;3.63;;;2.45;;
35330;SDS011;21441;52.190;20.910;2023-05-10T06:45:12;7.30;;;3.20;;
35330;SDS011;21441;52.190;20.910;2023-05-10T06:47:40;4.97;;;2.88;;
35330;SDS011;21441;52.190;20.910;2023-05-10T06:50:08;5.25;;;2.45;;
35330;SDS011;21441;52.190;20.910;2023-05-10T06:52:36;10.13;;;3.58;;
35330;SDS011;21441;52.190;20.910;2023-05-10T06:55:06;3.63;;;2.42;;
35330;SDS011;21441;52.190;20.910;2023-05-10T06:57:33;13.95;;;4.25;;
35330;SDS011;21441;52.190;20.910;2023-05-10T07:00:01;5.32;;;2.50;;
35330;SDS011;21441;52.190;20.910;2023-05-10T07:02:30;5.03;;;2.83;;
35330;SDS011;21441;52.190;20.910;2023-05-10T07:04:57;3.90;;;2.70;;
35330;SDS011;21441;52.190;20.910;2023-05-10T07:07:24;7.93;;;3.22;;
35330;SDS011;21441;52.190;20.910;2023-05-10T07:09:52;5.80;;;2.75;;
35330;SDS011;21441;52.190;20.910;2023-05-10T07:12:20;4.65;;;3.00;;
35330;SDS011;21441;52.190;20.910;2023-05-10T07:14:47;6.38;;;2.90;;
35330;SDS011;21441;52.190;20.910;2023-05-10T07:17:14;4.80;;;2.60;;
35330;SDS011;21441;52.190;20.910;2023-05-10T07:19:42;4.80;;;2.75;;
35330;SDS011;21441;52.190;20.910;2023-05-10T07:22:09;3.47;;;1.90;;
35330;SDS011;21441;52.190;20.910;2023-05-10T07:24:36;3.45;;;2.20;;
35330;SDS011;21441;52.190;20.910;2023-05-10T07:27:03;2.85;;;1.95;;
35330;SDS011;21441;52.190;20.910;2023-05-10T07:29:32;5.63;;;2.65;;
35330;SDS011;21441;52.190;20.910;2023-05-10T07:31:59;7.40;;;2.05;;
35330;SDS011;21441;52.190;20.910;2023-05-10T07:34:26;4.18;;;2.00;;
35330;SDS011;21441;52.190;20.910;2023-05-10T07:36:58;8.00;;;2.53;;
35330;SDS011;21441;52.190;20.910;2023-05-10T07:39:26;5.32;;;2.10;;
35330;SDS011;21441;52.190;20.910;2023-05-10T07:41:53;4.78;;;1.92;;
35330;SDS011;21441;52.190;20.910;2023-05-10T07:44:20;2.03;;;1.70;;
35330;SDS011;21441;52.190;20.910;2023-05-10T07:46:49;4.68;;;2.60;;
35330;SDS011;21441;52.190;20.910;2023-05-10T07:49:17;5.22;;;2.47;;
35330;SDS011;21441;52.190;20.910;2023-05-10T07:51:44;5.53;;;2.45;;
35330;SDS011;21441;52.190;20.910;2023-05-10T07:54:11;3.95;;;2.30;;
35330;SDS011;21441;52.190;20.910;2023-05-10T07:56:38;2.28;;;2.00;;
35330;SDS011;21441;52.190;20.910;2023-05-10T07:59:14;8.57;;;2.35;;
35330;SDS011;21441;52.190;20.910;2023-05-10T08:01:41;5.10;;;2.60;;
35330;SDS011;21441;52.190;20.910;2023-05-10T08:04:10;2.88;;;2.10;;
35330;SDS011;21441;52.190;20.910;2023-05-10T08:06:38;5.85;;;2.05;;
35330;SDS011;21441;52.190;20.910;2023-05-10T08:09:06;3.92;;;1.98;;
35330;SDS011;21441;52.190;20.910;2023-05-10T08:11:33;8.75;;;2.22;;
35330;SDS011;21441;52.190;20.910;2023-05-10T08:14:00;4.85;;;2.10;;
35330;SDS011;21441;52.190;20.910;2023-05-10T08:16:28;4.72;;;1.67;;
35330;SDS011;21441;52.190;20.910;2023-05-10T08:18:55;6.60;;;2.20;;
35330;SDS011;21441;52.190;20.910;2023-05-10T08:21:24;2.58;;;1.73;;
35330;SDS011;21441;52.190;20.910;2023-05-10T08:23:51;3.92;;;2.70;;
35330;SDS011;21441;52.190;20.910;2023-05-10T08:26:18;6.82;;;2.72;;
35330;SDS011;21441;52.190;20.910;2023-05-10T08:28:46;4.03;;;2.33;;
35330;SDS011;21441;52.190;20.910;2023-05-10T08:31:13;7.68;;;2.13;;
35330;SDS011;21441;52.190;20.910;2023-05-10T08:33:42;6.78;;;2.15;;
35330;SDS011;21441;52.190;20.910;2023-05-10T08:36:09;4.05;;;2.20;;
35330;SDS011;21441;52.190;20.910;2023-05-10T08:38:38;3.53;;;2.10;;
35330;SDS011;21441;52.190;20.910;2023-05-10T08:41:05;9.40;;;1.98;;
35330;SDS011;21441;52.190;20.910;2023-05-10T08:43:33;6.03;;;2.17;;
35330;SDS011;21441;52.190;20.910;2023-05-10T08:46:03;6.78;;;2.22;;
35330;SDS011;21441;52.190;20.910;2023-05-10T08:48:34;5.05;;;2.10;;
35330;SDS011;21441;52.190;20.910;2023-05-10T08:51:02;5.03;;;2.50;;
35330;SDS011;21441;52.190;20.910;2023-05-10T08:53:31;3.65;;;2.40;;
35330;SDS011;21441;52.190;20.910;2023-05-10T08:56:03;3.10;;;1.80;;
35330;SDS011;21441;52.190;20.910;2023-05-10T08:58:31;7.53;;;1.98;;
35330;SDS011;21441;52.190;20.910;2023-05-10T09:00:58;5.55;;;1.80;;
35330;SDS011;21441;52.190;20.910;2023-05-10T09:03:26;4.80;;;1.98;;
35330;SDS011;21441;52.190;20.910;2023-05-10T09:05:53;5.57;;;2.22;;
35330;SDS011;21441;52.190;20.910;2023-05-10T09:08:21;4.78;;;2.55;;
35330;SDS011;21441;52.190;20.910;2023-05-10T09:10:50;7.60;;;1.80;;
35330;SDS011;21441;52.190;20.910;2023-05-10T09:13:20;5.75;;;2.60;;
35330;SDS011;21441;52.190;20.910;2023-05-10T09:15:48;2.30;;;1.90;;
35330;SDS011;21441;52.190;20.910;2023-05-10T09:18:16;5.90;;;2.40;;
35330;SDS011;21441;52.190;20.910;2023-05-10T09:20:43;5.72;;;2.00;;
35330;SDS011;21441;52.190;20.910;2023-05-10T09:23:10;5.88;;;1.67;;
35330;SDS011;21441;52.190;20.910;2023-05-10T09:25:37;10.18;;;2.42;;
35330;SDS011;21441;52.190;20.910;2023-05-10T09:28:06;3.85;;;1.80;;
35330;SDS011;21441;52.190;20.910;2023-05-10T09:30:35;6.15;;;2.10;;
35330;SDS011;21441;52.190;20.910;2023-05-10T09:33:03;5.97;;;2.42;;
35330;SDS011;21441;52.190;20.910;2023-05-10T09:35:30;5.75;;;2.40;;
35330;SDS011;21441;52.190;20.910;2023-05-10T09:38:00;3.57;;;2.53;;
35330;SDS011;21441;52.190;20.910;2023-05-10T09:40:29;9.38;;;2.60;;
35330;SDS011;21441;52.190;20.910;2023-05-10T09:42:57;6.28;;;2.20;;
35330;SDS011;21441;52.190;20.910;2023-05-10T09:45:26;3.45;;;2.42;;
35330;SDS011;21441;52.190;20.910;2023-05-10T09:47:55;2.30;;;1.60;;
35330;SDS011;21441;52.190;20.910;2023-05-10T09:50:23;3.25;;;2.20;;
35330;SDS011;21441;52.190;20.910;2023-05-10T09:52:51;2.60;;;1.88;;
35330;SDS011;21441;52.190;20.910;2023-05-10T09:55:19;4.03;;;2.20;;
35330;SDS011;21441;52.190;20.910;2023-05-10T09:57:48;3.10;;;1.88;;
35330;SDS011;21441;52.190;20.910;2023-05-10T10:00:16;3.78;;;1.90;;
35330;SDS011;21441;52.190;20.910;2023-05-10T10:02:46;9.70;;;2.00;;
35330;SDS011;21441;52.190;20.910;2023-05-10T10:05:16;5.00;;;2.10;;
35330;SDS011;21441;52.190;20.910;2023-05-10T10:07:43;3.67;;;2.00;;
35330;SDS011;21441;52.190;20.910;2023-05-10T10:10:10;3.03;;;1.98;;
35330;SDS011;21441;52.190;20.910;2023-05-10T10:12:39;3.92;;;2.45;;
35330;SDS011;21441;52.190;20.910;2023-05-10T10:15:07;5.28;;;2.25;;
35330;SDS011;21441;52.190;20.910;2023-05-10T10:17:36;3.75;;;2.13;;
35330;SDS011;21441;52.190;20.910;2023-05-10T10:20:04;4.07;;;2.10;;
35330;SDS011;21441;52.190;20.910;2023-05-10T10:22:34;5.03;;;2.75;;
35330;SDS011;21441;52.190;20.910;2023-05-10T10:25:02;4.00;;;2.20;;
35330;SDS011;21441;52.190;20.910;2023-05-10T10:27:34;2.67;;;2.00;;
35330;SDS011;21441;52.190;20.910;2023-05-10T10:30:13;5.57;;;2.72;;
35330;SDS011;21441;52.190;20.910;2023-05-10T10:32:59;4.38;;;2.22;;
35330;SDS011;21441;52.190;20.910;2023-05-10T10:35:40;3.65;;;1.70;;
35330;SDS011;21441;52.190;20.910;2023-05-10T10:38:09;2.63;;;1.75;;
35330;SDS011;21441;52.190;20.910;2023-05-10T10:40:36;10.95;;;2.15;;
35330;SDS011;21441;52.190;20.910;2023-05-10T10:46:11;5.60;;;2.17;;
35330;SDS011;21441;52.190;20.910;2023-05-10T10:48:40;5.53;;;2.08;;
35330;SDS011;21441;52.190;20.910;2023-05-10T10:51:07;4.10;;;2.40;;
35330;SDS011;21441;52.190;20.910;2023-05-10T10:53:36;3.53;;;2.08;;
35330;SDS011;21441;52.190;20.910;2023-05-10T10:56:06;4.43;;;2.17;;
35330;SDS011;21441;52.190;20.910;2023-05-10T10:58:36;3.83;;;1.80;;
35330;SDS011;21441;52.190;20.910;2023-05-10T11:01:11;6.03;;;2.72;;
35330;SDS011;21441;52.190;20.910;2023-05-10T11:03:40;2.95;;;1.95;;
35330;SDS011;21441;52.190;20.910;2023-05-10T11:06:07;6.70;;;2.50;;
35330;SDS011;21441;52.190;20.910;2023-05-10T11:08:42;4.03;;;2.03;;
35330;SDS011;21441;52.190;20.910;2023-05-10T11:11:12;5.85;;;2.20;;
35330;SDS011;21441;52.190;20.910;2023-05-10T11:13:42;5.68;;;2.28;;
35330;SDS011;21441;52.190;20.910;2023-05-10T11:16:11;8.95;;;2.25;;
35330;SDS011;21441;52.190;20.910;2023-05-10T11:21:44;2.60;;;1.55;;
35330;SDS011;21441;52.190;20.910;2023-05-10T11:24:14;3.95;;;2.28;;
35330;SDS011;21441;52.190;20.910;2023-05-10T11:26:42;4.50;;;2.40;;
35330;SDS011;21441;52.190;20.910;2023-05-10T11:29:10;3.53;;;2.60;;
35330;SDS011;21441;52.190;20.910;2023-05-10T11:31:41;2.70;;;2.05;;
35330;SDS011;21441;52.190;20.910;2023-05-10T11:34:09;3.90;;;2.45;;
35330;SDS011;21441;52.190;20.910;2023-05-10T11:36:36;6.18;;;2.55;;
35330;SDS011;21441;52.190;20.910;2023-05-10T11:39:04;3.70;;;2.38;;
35330;SDS011;21441;52.190;20.910;2023-05-10T11:41:33;4.22;;;1.92;;
35330;SDS011;21441;52.190;20.910;2023-05-10T11:44:01;3.40;;;2.03;;
35330;SDS011;21441;52.190;20.910;2023-05-10T11:46:28;3.53;;;2.00;;
35330;SDS011;21441;52.190;20.910;2023-05-10T11:48:57;3.50;;;2.30;;
35330;SDS011;21441;52.190;20.910;2023-05-10T11:51:27;2.85;;;2.05;;
35330;SDS011;21441;52.190;20.910;2023-05-10T11:53:55;4.72;;;2.47;;
35330;SDS011;21441;52.190;20.910;2023-05-10T11:56:23;4.80;;;2.10;;
35330;SDS011;21441;52.190;20.910;2023-05-10T11:58:53;7.43;;;2.42;;
35330;SDS011;21441;52.190;20.910;2023-05-10T12:01:22;4.15;;;2.70;;
35330;SDS011;21441;52.190;20.910;2023-05-10T12:03:51;6.28;;;2.05;;
35330;SDS011;21441;52.190;20.910;2023-05-10T12:06:20;4.53;;;2.37;;
35330;SDS011;21441;52.190;20.910;2023-05-10T12:08:48;5.30;;;2.35;;
35330;SDS011;21441;52.190;20.910;2023-05-10T12:11:18;4.35;;;2.72;;
35330;SDS011;21441;52.190;20.910;2023-05-10T12:13:47;3.17;;;2.17;;
35330;SDS011;21441;52.190;20.910;2023-05-10T12:16:17;4.07;;;2.30;;
35330;SDS011;21441;52.190;20.910;2023-05-10T12:18:48;8.13;;;2.15;;
35330;SDS011;21441;52.190;20.910;2023-05-10T12:21:16;3.20;;;2.33;;
35330;SDS011;21441;52.190;20.910;2023-05-10T12:23:45;5.43;;;2.00;;
35330;SDS011;21441;52.190;20.910;2023-05-10T12:26:12;12.23;;;2.40;;
35330;SDS011;21441;52.190;20.910;2023-05-10T12:28:41;9.43;;;2.28;;
35330;SDS011;21441;52.190;20.910;2023-05-10T12:31:08;9.18;;;2.72;;
35330;SDS011;21441;52.190;20.910;2023-05-10T12:33:37;3.65;;;2.25;;
35330;SDS011;21441;52.190;20.910;2023-05-10T12:36:07;3.72;;;2.13;;
35330;SDS011;21441;52.190;20.910;2023-05-10T12:38:36;4.72;;;2.30;;
35330;SDS011;21441;52.190;20.910;2023-05-10T12:41:04;2.70;;;1.90;;
35330;SDS011;21441;52.190;20.910;2023-05-10T12:43:32;3.85;;;2.30;;
35330;SDS011;21441;52.190;20.910;2023-05-10T12:46:04;7.55;;;2.97;;
35330;SDS011;21441;52.190;20.910;2023-05-10T12:48:31;5.78;;;3.00;;
35330;SDS011;21441;52.190;20.910;2023-05-10T12:51:00;5.53;;;2.30;;
35330;SDS011;21441;52.190;20.910;2023-05-10T12:53:28;3.60;;;1.90;;
35330;SDS011;21441;52.190;20.910;2023-05-10T12:55:55;5.32;;;2.22;;
35330;SDS011;21441;52.190;20.910;2023-05-10T12:58:23;8.30;;;3.10;;
35330;SDS011;21441;52.190;20.910;2023-05-10T13:00:50;5.97;;;2.50;;
35330;SDS011;21441;52.190;20.910;2023-05-10T13:03:18;6.60;;;2.70;;
35330;SDS011;21441;52.190;20.910;2023-05-10T13:05:46;3.83;;;2.38;;
35330;SDS011;21441;52.190;20.910;2023-05-10T13:08:14;3.67;;;2.08;;
35330;SDS011;21441;52.190;20.910;2023-05-10T13:10:41;3.63;;;1.90;;
35330;SDS011;21441;52.190;20.910;2023-05-10T13:13:08;5.15;;;2.35;;
35330;SDS011;21441;52.190;20.910;2023-05-10T13:15:36;4.47;;;2.20;;
35330;SDS011;21441;52.190;20.910;2023-05-10T13:18:03;4.82;;;2.63;;
35330;SDS011;21441;52.190;20.910;2023-05-10T13:20:30;6.25;;;2.55;;
35330;SDS011;21441;52.190;20.910;2023-05-10T13:22:57;6.45;;;2.22;;
35330;SDS011;21441;52.190;20.910;2023-05-10T13:25:26;3.97;;;2.33;;
35330;SDS011;21441;52.190;20.910;2023-05-10T13:27:53;3.20;;;1.90;;
35330;SDS011;21441;52.190;20.910;2023-05-10T13:30:20;5.68;;;2.03;;
35330;SDS011;21441;52.190;20.910;2023-05-10T13:32:47;4.10;;;2.30;;
35330;SDS011;21441;52.190;20.910;2023-05-10T13:35:15;5.82;;;3.05;;
35330;SDS011;21441;52.190;20.910;2023-05-10T13:37:42;5.53;;;2.20;;
35330;SDS011;21441;52.190;20.910;2023-05-10T13:40:10;3.65;;;1.73;;
35330;SDS011;21441;52.190;20.910;2023-05-10T13:42:39;5.03;;;2.67;;
35330;SDS011;21441;52.190;20.910;2023-05-10T13:45:06;2.67;;;2.17;;
35330;SDS011;21441;52.190;20.910;2023-05-10T13:47:34;6.88;;;2.20;;
35330;SDS011;21441;52.190;20.910;2023-05-10T13:50:01;3.42;;;1.83;;
35330;SDS011;21441;52.190;20.910;2023-05-10T13:52:29;4.07;;;2.53;;
35330;SDS011;21441;52.190;20.910;2023-05-10T13:54:56;4.90;;;2.28;;
35330;SDS011;21441;52.190;20.910;2023-05-10T13:57:23;7.15;;;2.40;;
35330;SDS011;21441;52.190;20.910;2023-05-10T13:59:51;3.55;;;1.63;;
35330;SDS011;21441;52.190;20.910;2023-05-10T14:02:19;4.18;;;2.15;;
35330;SDS011;21441;52.190;20.910;2023-05-10T14:04:46;3.50;;;2.17;;
35330;SDS011;21441;52.190;20.910;2023-05-10T14:07:13;3.10;;;2.03;;
35330;SDS011;21441;52.190;20.910;2023-05-10T14:09:40;4.88;;;2.97;;
35330;SDS011;21441;52.190;20.910;2023-05-10T14:12:08;2.85;;;1.92;;
35330;SDS011;21441;52.190;20.910;2023-05-10T14:14:35;3.55;;;2.10;;
35330;SDS011;21441;52.190;20.910;2023-05-10T14:17:03;3.08;;;2.08;;
35330;SDS011;21441;52.190;20.910;2023-05-10T14:19:30;5.80;;;2.10;;
35330;SDS011;21441;52.190;20.910;2023-05-10T14:21:59;3.75;;;2.45;;
35330;SDS011;21441;52.190;20.910;2023-05-10T14:24:26;4.00;;;2.10;;
35330;SDS011;21441;52.190;20.910;2023-05-10T14:26:54;10.32;;;2.45;;
35330;SDS011;21441;52.190;20.910;2023-05-10T14:29:21;3.65;;;2.40;;
35330;SDS011;21441;52.190;20.910;2023-05-10T14:31:49;3.92;;;2.20;;
35330;SDS011;21441;52.190;20.910;2023-05-10T14:34:17;4.38;;;2.05;;
35330;SDS011;21441;52.190;20.910;2023-05-10T14:36:44;3.40;;;1.73;;
35330;SDS011;21441;52.190;20.910;2023-05-10T14:39:11;3.83;;;2.10;;
35330;SDS011;21441;52.190;20.910;2023-05-10T14:41:39;5.63;;;2.40;;
35330;SDS011;21441;52.190;20.910;2023-05-10T14:44:08;4.07;;;2.33;;
35330;SDS011;21441;52.190;20.910;2023-05-10T14:46:35;5.00;;;2.17;;
35330;SDS011;21441;52.190;20.910;2023-05-10T14:49:02;2.63;;;2.00;;
35330;SDS011;21441;52.190;20.910;2023-05-10T14:51:31;3.38;;;2.30;;
35330;SDS011;21441;52.190;20.910;2023-05-10T14:53:58;2.05;;;1.85;;